Time;durP1;ratioP1;P1;durP2;ratioP2;P2;SDS_P1;SDS_P2;PMS_P1;PMS_P2;Temp;Humidity;BMP_temperature;BMP_pressure;BME280_temperature;BME280_humidity;BME280_pressure;Samples;Min_cycle;Max_cycle;Signal;HPM_P1;HPM_P2
2021/10/20 00:01:28;;;;;;;;;;;15.30;99.90;;;;;;5037171;28;19924;-81
2021/10/20 00:03:55;;;;;;;;;;;15.40;99.90;;;;;;5030437;28;19913;-82
2021/10/20 00:06:20;;;;;;;;;;;15.40;99.90;;;;;;5037392;28;19921;-80
2021/10/20 00:08:50;;;;;;;;;;;15.40;99.90;;;;;;5034127;28;20228;-81
2021/10/20 00:11:16;;;;;;;;;;;15.40;99.90;;;;;;5037517;28;20342;-86
2021/10/20 00:13:41;;;;;;;;;;;15.40;99.90;;;;;;5034625;28;19913;-82
2021/10/20 00:16:07;;;;;;;;;;;15.40;99.90;;;;;;5030196;28;20075;-81
2021/10/20 00:18:33;;;;;;;;;;;15.40;99.90;;;;;;5034481;28;19917;-81
2021/10/20 00:20:59;;;;;;;;;;;15.30;99.90;;;;;;5021204;28;19932;-83
2021/10/20 00:23:24;;;;;;;;;;;15.30;99.90;;;;;;5030278;28;19913;-81
2021/10/20 00:25:50;;;;;;;;;;;15.30;99.90;;;;;;5031106;28;19944;-81
2021/10/20 00:28:15;;;;;;;;;;;15.30;99.90;;;;;;5035969;28;19921;-79
2021/10/20 00:30:41;;;;;;;;;;;15.30;99.90;;;;;;5035675;28;20002;-85
2021/10/20 00:33:06;;;;;;;;;;;15.30;99.90;;;;;;5024997;28;19920;-80
2021/10/20 00:35:32;;;;;;;;;;;15.30;99.90;;;;;;5036147;28;19913;-82
2021/10/20 00:37:58;;;;;;;;;;;15.20;99.90;;;;;;5037657;28;19916;-83
2021/10/20 00:40:25;;;;;;;;;;;15.20;99.90;;;;;;5034241;28;20012;-81
2021/10/20 00:42:50;;;;;;;;;;;15.20;99.90;;;;;;5024677;28;20024;-82
2021/10/20 00:45:16;;;;;;;;;;;15.20;99.90;;;;;;5028965;28;20349;-82
2021/10/20 00:47:42;;;;;;;;;;;15.20;99.90;;;;;;5031673;28;19982;-82
2021/10/20 00:50:09;;;;;;;;;;;15.30;99.90;;;;;;5052659;28;19949;-81
2021/10/20 00:52:35;;;;;;;;;;;15.20;99.90;;;;;;5042923;28;19924;-81
2021/10/20 00:55:01;;;;;;;;;;;15.20;99.90;;;;;;5029541;28;19913;-81
2021/10/20 00:57:28;;;;;;;;;;;15.20;99.90;;;;;;5031008;28;19913;-84
2021/10/20 00:59:55;;;;;;;;;;;15.20;99.90;;;;;;5034679;28;19924;-82
2021/10/20 01:02:20;;;;;;;;;;;15.20;99.90;;;;;;5023638;28;19921;-81
2021/10/20 01:04:48;;;;;;;;;;;15.20;99.90;;;;;;5019480;28;20223;-83
2021/10/20 01:07:13;;;;;;;;;;;15.20;99.90;;;;;;5035935;28;20299;-80
2021/10/20 01:09:39;;;;;;;;;;;15.10;99.90;;;;;;5042597;28;19957;-81
2021/10/20 01:12:05;;;;;;;;;;;15.10;99.90;;;;;;5034452;28;19923;-81
2021/10/20 01:14:31;;;;;;;;;;;15.10;99.90;;;;;;5036265;28;19917;-80
2021/10/20 01:16:59;;;;;;;;;;;15.10;99.90;;;;;;5034353;28;19963;-82
2021/10/20 01:19:25;;;;;;;;;;;15.10;99.90;;;;;;5036298;28;19917;-81
2021/10/20 01:21:51;;;;;;;;;;;15.10;99.90;;;;;;5034856;28;19967;-82
2021/10/20 01:24:21;;;;;;;;;;;15.10;99.90;;;;;;5049948;28;19913;-81
2021/10/20 01:26:50;;;;;;;;;;;15.00;99.90;;;;;;5028224;28;19944;-85
2021/10/20 01:29:15;;;;;;;;;;;15.00;99.90;;;;;;5028528;28;19937;-80
2021/10/20 01:31:45;;;;;;;;;;;15.00;99.90;;;;;;5019788;28;19913;-83
2021/10/20 01:34:11;;;;;;;;;;;15.00;99.90;;;;;;5021725;28;20220;-82
2021/10/20 01:36:36;;;;;;;;;;;15.00;99.90;;;;;;5027334;28;19913;-80
2021/10/20 01:39:02;;;;;;;;;;;15.00;99.90;;;;;;5035444;28;19913;-81
2021/10/20 01:41:32;;;;;;;;;;;15.10;99.90;;;;;;5033518;28;20217;-81
2021/10/20 01:43:58;;;;;;;;;;;15.00;99.90;;;;;;5033643;28;19913;-81
2021/10/20 01:46:23;;;;;;;;;;;14.90;99.90;;;;;;5031764;28;19940;-80
2021/10/20 01:48:49;;;;;;;;;;;15.00;99.90;;;;;;5035379;28;19918;-83
2021/10/20 01:51:15;;;;;;;;;;;14.90;99.90;;;;;;5031963;28;20000;-82
2021/10/20 01:53:40;;;;;;;;;;;14.90;99.90;;;;;;5033395;28;19917;-82
2021/10/20 01:56:06;;;;;;;;;;;14.90;99.90;;;;;;5031507;28;19924;-82
2021/10/20 01:58:32;;;;;;;;;;;14.90;99.90;;;;;;5029740;28;20244;-81
2021/10/20 02:00:57;;;;;;;;;;;14.90;99.90;;;;;;5029734;28;19917;-82
2021/10/20 02:03:26;;;;;;;;;;;14.80;99.90;;;;;;5035115;28;19920;-82
2021/10/20 02:05:52;;;;;;;;;;;14.80;99.90;;;;;;5032794;28;20015;-83
2021/10/20 02:08:18;;;;;;;;;;;14.80;99.90;;;;;;5026022;28;20253;-81
2021/10/20 02:10:44;;;;;;;;;;;14.80;99.90;;;;;;5033341;28;20012;-81
2021/10/20 02:13:09;;;;;;;;;;;14.80;99.90;;;;;;5033466;28;19909;-83
2021/10/20 02:15:35;;;;;;;;;;;14.80;99.90;;;;;;5017102;28;19963;-81
2021/10/20 02:18:00;;;;;;;;;;;14.80;99.90;;;;;;5029723;28;20007;-82
2021/10/20 02:20:26;;;;;;;;;;;14.90;99.90;;;;;;5032670;28;20223;-81
2021/10/20 02:22:52;;;;;;;;;;;14.90;99.90;;;;;;5033275;28;19913;-83
2021/10/20 02:25:17;;;;;;;;;;;14.90;99.90;;;;;;5034794;28;19921;-81
2021/10/20 02:27:43;;;;;;;;;;;14.90;99.90;;;;;;5031250;28;20312;-82
2021/10/20 02:30:09;;;;;;;;;;;14.90;99.90;;;;;;5033309;28;19965;-81
2021/10/20 02:32:34;;;;;;;;;;;14.90;99.90;;;;;;5030473;28;19921;-81
2021/10/20 02:35:02;;;;;;;;;;;15.00;99.90;;;;;;5024366;28;19945;-81
2021/10/20 02:37:28;;;;;;;;;;;15.00;99.90;;;;;;5028909;28;19917;-81
2021/10/20 02:39:53;;;;;;;;;;;15.00;99.90;;;;;;5032565;28;19924;-80
2021/10/20 02:42:19;;;;;;;;;;;15.00;99.90;;;;;;5038943;28;19967;-82
2021/10/20 02:44:44;;;;;;;;;;;15.00;99.90;;;;;;5039106;28;19917;-81
2021/10/20 02:47:10;;;;;;;;;;;15.00;99.90;;;;;;5035007;28;19967;-85
2021/10/20 02:49:35;;;;;;;;;;;15.00;99.90;;;;;;5034352;28;19913;-81
2021/10/20 02:52:01;;;;;;;;;;;15.00;99.90;;;;;;5035107;28;19909;-82
2021/10/20 02:54:27;;;;;;;;;;;15.10;99.90;;;;;;5035053;28;19925;-80
2021/10/20 02:56:52;;;;;;;;;;;15.10;99.90;;;;;;5034716;28;19995;-83
2021/10/20 02:59:18;;;;;;;;;;;15.00;99.90;;;;;;5034650;28;20316;-81
2021/10/20 03:01:44;;;;;;;;;;;15.10;99.90;;;;;;5029693;28;19913;-82
2021/10/20 03:04:09;;;;;;;;;;;15.00;99.90;;;;;;5042082;28;19913;-83
2021/10/20 03:06:35;;;;;;;;;;;15.10;99.90;;;;;;5034127;28;19921;-80
2021/10/20 03:09:00;;;;;;;;;;;15.10;99.90;;;;;;5031609;28;20414;-80
2021/10/20 03:11:26;;;;;;;;;;;15.10;99.90;;;;;;5033345;28;19974;-82
2021/10/20 03:13:51;;;;;;;;;;;15.10;99.90;;;;;;5027510;28;19966;-82
2021/10/20 03:16:17;;;;;;;;;;;15.20;99.90;;;;;;5032504;28;19909;-83
2021/10/20 03:18:43;;;;;;;;;;;15.10;99.90;;;;;;5031967;28;19960;-81
2021/10/20 03:21:08;;;;;;;;;;;15.10;99.90;;;;;;5028577;28;19951;-83
2021/10/20 03:23:34;;;;;;;;;;;15.10;99.90;;;;;;5023668;28;20250;-82
2021/10/20 03:26:00;;;;;;;;;;;15.10;99.90;;;;;;5033695;28;19921;-82
2021/10/20 03:28:25;;;;;;;;;;;15.10;99.90;;;;;;5029073;28;19913;-80
2021/10/20 03:30:51;;;;;;;;;;;15.10;99.90;;;;;;5029771;28;19995;-81
2021/10/20 03:33:17;;;;;;;;;;;15.10;99.90;;;;;;5037720;28;19992;-81
2021/10/20 03:35:42;;;;;;;;;;;15.20;99.90;;;;;;5029472;28;19920;-81
2021/10/20 03:38:09;;;;;;;;;;;15.10;99.90;;;;;;5033418;28;20260;-87
2021/10/20 03:40:35;;;;;;;;;;;15.20;99.90;;;;;;5036764;28;20335;-81
2021/10/20 03:43:00;;;;;;;;;;;15.20;99.90;;;;;;5047558;28;19913;-83
2021/10/20 03:45:26;;;;;;;;;;;15.20;99.90;;;;;;5050863;28;19917;-82
2021/10/20 03:47:52;;;;;;;;;;;15.20;99.90;;;;;;5037059;28;20329;-82
2021/10/20 03:50:17;;;;;;;;;;;15.20;99.90;;;;;;5036481;28;20320;-82
2021/10/20 03:52:43;;;;;;;;;;;15.30;99.90;;;;;;5036482;28;20528;-84
2021/10/20 03:55:09;;;;;;;;;;;15.30;99.90;;;;;;5036840;28;19923;-83
2021/10/20 03:57:38;;;;;;;;;;;15.30;99.90;;;;;;5037776;28;19994;-80
2021/10/20 04:00:04;;;;;;;;;;;15.30;99.90;;;;;;5042100;28;19913;-80
2021/10/20 04:02:30;;;;;;;;;;;15.30;99.90;;;;;;5037180;28;19917;-82
2021/10/20 04:04:55;;;;;;;;;;;15.40;99.90;;;;;;5034569;28;19932;-81
2021/10/20 04:07:21;;;;;;;;;;;15.40;99.90;;;;;;5033272;28;19913;-80
2021/10/20 04:09:46;;;;;;;;;;;15.40;99.90;;;;;;5034474;28;19921;-82
2021/10/20 04:12:12;;;;;;;;;;;15.30;99.90;;;;;;5027185;28;19920;-82
2021/10/20 04:14:38;;;;;;;;;;;15.30;99.90;;;;;;5036912;28;19909;-81
2021/10/20 04:17:03;;;;;;;;;;;15.30;99.90;;;;;;5031984;28;19917;-79
2021/10/20 04:19:29;;;;;;;;;;;15.40;99.90;;;;;;5037502;28;19949;-81
2021/10/20 04:21:54;;;;;;;;;;;15.40;99.90;;;;;;5034026;28;19925;-87
2021/10/20 04:24:20;;;;;;;;;;;15.30;99.90;;;;;;5035472;28;19956;-84
2021/10/20 04:26:46;;;;;;;;;;;15.30;99.90;;;;;;5034260;28;19969;-82
2021/10/20 04:29:11;;;;;;;;;;;15.30;99.90;;;;;;5037793;28;19914;-84
2021/10/20 04:31:37;;;;;;;;;;;15.30;99.90;;;;;;5033095;28;19924;-83
2021/10/20 04:34:03;;;;;;;;;;;15.30;99.90;;;;;;5031112;28;19924;-82
2021/10/20 04:36:28;;;;;;;;;;;15.30;99.90;;;;;;5026213;28;19913;-83
2021/10/20 04:38:54;;;;;;;;;;;15.30;99.90;;;;;;5036058;28;20020;-83
2021/10/20 04:41:19;;;;;;;;;;;15.30;99.90;;;;;;5028734;28;20254;-81
2021/10/20 04:43:45;;;;;;;;;;;15.40;99.90;;;;;;5039693;28;19921;-81
2021/10/20 04:46:11;;;;;;;;;;;15.40;99.90;;;;;;5039329;28;19924;-81
2021/10/20 04:48:36;;;;;;;;;;;15.50;99.90;;;;;;5039114;28;19990;-84
2021/10/20 04:51:02;;;;;;;;;;;15.50;99.90;;;;;;5043192;28;20209;-85
2021/10/20 04:53:28;;;;;;;;;;;15.60;99.90;;;;;;5036705;28;19916;-81
2021/10/20 04:55:53;;;;;;;;;;;15.70;99.90;;;;;;5030121;28;19917;-80
2021/10/20 04:58:19;;;;;;;;;;;15.70;99.90;;;;;;5037064;28;19909;-82
2021/10/20 05:00:44;;;;;;;;;;;15.80;99.90;;;;;;5034155;28;19949;-82
2021/10/20 05:03:10;;;;;;;;;;;15.80;99.90;;;;;;5034365;28;19917;-80
2021/10/20 05:05:36;;;;;;;;;;;15.80;99.90;;;;;;5034821;28;20317;-83
2021/10/20 05:08:02;;;;;;;;;;;15.90;99.90;;;;;;5036236;28;20293;-81
2021/10/20 05:10:28;;;;;;;;;;;15.90;99.90;;;;;;5032837;28;19921;-83
2021/10/20 05:12:56;;;;;;;;;;;15.90;99.90;;;;;;5034423;28;20300;-77
2021/10/20 05:15:21;;;;;;;;;;;15.80;99.90;;;;;;5036153;28;19924;-82
2021/10/20 05:17:47;;;;;;;;;;;15.90;99.90;;;;;;5034917;28;20895;-81
2021/10/20 05:20:13;;;;;;;;;;;15.80;99.90;;;;;;5033068;28;19917;-85
2021/10/20 05:22:39;;;;;;;;;;;15.70;99.90;;;;;;5035167;28;19925;-82
2021/10/20 05:25:05;;;;;;;;;;;15.70;99.90;;;;;;5035675;28;20320;-87
2021/10/20 05:27:31;;;;;;;;;;;15.70;99.90;;;;;;5034816;28;19921;-87
2021/10/20 05:29:57;;;;;;;;;;;15.70;99.90;;;;;;5036525;28;19917;-87
2021/10/20 05:32:27;;;;;;;;;;;15.60;99.90;;;;;;5035348;28;19928;-84
2021/10/20 05:34:52;;;;;;;;;;;15.60;99.90;;;;;;5035825;28;19952;-89
2021/10/20 05:37:18;;;;;;;;;;;15.60;99.90;;;;;;5037242;28;20316;-86
2021/10/20 05:39:44;;;;;;;;;;;15.60;99.90;;;;;;5030316;28;19920;-85
2021/10/20 05:42:10;;;;;;;;;;;15.60;99.90;;;;;;5031968;28;20383;-83
2021/10/20 05:44:35;;;;;;;;;;;15.60;99.90;;;;;;5031095;28;19940;-82
2021/10/20 05:47:01;;;;;;;;;;;15.60;99.90;;;;;;5032869;28;20308;-84
2021/10/20 05:49:26;;;;;;;;;;;15.60;99.90;;;;;;5029334;28;19962;-83
2021/10/20 05:51:52;;;;;;;;;;;15.60;99.90;;;;;;5036444;28;19957;-86
2021/10/20 05:54:18;;;;;;;;;;;15.60;99.90;;;;;;5031717;28;19913;-83
2021/10/20 05:56:43;;;;;;;;;;;15.60;99.90;;;;;;5034766;28;19917;-81
2021/10/20 05:59:09;;;;;;;;;;;15.60;99.90;;;;;;5035446;28;19913;-86
2021/10/20 06:01:34;;;;;;;;;;;15.60;99.90;;;;;;5035494;28;19914;-79
2021/10/20 06:04:00;;;;;;;;;;;15.60;99.90;;;;;;5049271;28;20390;-82
2021/10/20 06:06:26;;;;;;;;;;;15.70;99.90;;;;;;5030238;28;20033;-81
2021/10/20 06:08:52;;;;;;;;;;;15.70;99.90;;;;;;5033780;28;19917;-82
2021/10/20 06:11:18;;;;;;;;;;;15.70;99.90;;;;;;5033528;28;20189;-82
2021/10/20 06:13:44;;;;;;;;;;;15.70;99.90;;;;;;5042846;28;19952;-81
2021/10/20 06:16:11;;;;;;;;;;;15.80;99.90;;;;;;5035629;28;19944;-84
2021/10/20 06:18:36;;;;;;;;;;;15.80;99.90;;;;;;5032647;28;20244;-83
2021/10/20 06:21:03;;;;;;;;;;;15.80;99.90;;;;;;5045525;28;19920;-82
2021/10/20 06:23:28;;;;;;;;;;;15.80;99.90;;;;;;5033982;28;20197;-82
2021/10/20 06:25:54;;;;;;;;;;;15.80;99.90;;;;;;5033467;28;19924;-80
2021/10/20 06:28:19;;;;;;;;;;;15.80;99.90;;;;;;5022025;28;19917;-82
2021/10/20 06:30:45;;;;;;;;;;;15.80;99.90;;;;;;5032748;28;19924;-83
2021/10/20 06:33:11;;;;;;;;;;;15.80;99.90;;;;;;5033401;28;19913;-82
2021/10/20 06:35:36;;;;;;;;;;;15.90;99.90;;;;;;5034519;28;20003;-83
2021/10/20 06:38:02;;;;;;;;;;;15.90;99.90;;;;;;5034574;28;19916;-82
2021/10/20 06:40:28;;;;;;;;;;;15.90;99.90;;;;;;5050345;28;19975;-84
2021/10/20 06:42:53;;;;;;;;;;;16.00;99.90;;;;;;5032541;28;19921;-82
2021/10/20 06:45:19;;;;;;;;;;;16.00;99.90;;;;;;5026587;28;19980;-83
2021/10/20 06:47:45;;;;;;;;;;;16.00;99.90;;;;;;5030304;28;19948;-81
2021/10/20 06:50:10;;;;;;;;;;;16.00;99.90;;;;;;5030799;28;19913;-84
2021/10/20 06:52:36;;;;;;;;;;;16.00;99.90;;;;;;5043368;28;20012;-81
2021/10/20 06:55:03;;;;;;;;;;;16.00;99.90;;;;;;5032408;28;19913;-85
2021/10/20 06:57:29;;;;;;;;;;;16.00;99.90;;;;;;5045665;28;19965;-81
2021/10/20 06:59:55;;;;;;;;;;;16.00;99.90;;;;;;5031174;28;20350;-84
2021/10/20 07:02:20;;;;;;;;;;;16.00;99.90;;;;;;5033152;28;20263;-83
2021/10/20 07:04:46;;;;;;;;;;;15.90;99.90;;;;;;5032805;28;19945;-82
2021/10/20 07:07:13;;;;;;;;;;;15.90;99.90;;;;;;5031582;28;19913;-81
2021/10/20 07:09:39;;;;;;;;;;;15.70;99.90;;;;;;5028714;28;20216;-81
2021/10/20 07:12:04;;;;;;;;;;;15.70;99.90;;;;;;5032261;28;20008;-77
2021/10/20 07:14:30;;;;;;;;;;;15.60;99.90;;;;;;5032693;28;19944;-84
2021/10/20 07:16:58;;;;;;;;;;;15.50;99.90;;;;;;5030562;28;20315;-80
2021/10/20 07:19:23;;;;;;;;;;;15.50;99.90;;;;;;5028119;28;20002;-83
2021/10/20 07:21:49;;;;;;;;;;;15.50;99.90;;;;;;5034069;28;20328;-77
2021/10/20 07:24:15;;;;;;;;;;;15.30;99.90;;;;;;5034307;28;20275;-81
2021/10/20 07:26:40;;;;;;;;;;;15.30;99.90;;;;;;5032766;28;19917;-86
2021/10/20 07:29:06;;;;;;;;;;;15.30;99.90;;;;;;5028322;28;19921;-76
2021/10/20 07:31:32;;;;;;;;;;;15.30;99.90;;;;;;5034369;28;20273;-84
2021/10/20 07:33:58;;;;;;;;;;;15.30;99.90;;;;;;5031178;28;19913;-82
2021/10/20 07:36:23;;;;;;;;;;;15.20;99.90;;;;;;5034901;28;20266;-82
2021/10/20 07:38:49;;;;;;;;;;;15.20;99.90;;;;;;5034967;28;19921;-81
2021/10/20 07:41:15;;;;;;;;;;;15.10;99.90;;;;;;5035571;28;19921;-80
2021/10/20 07:43:42;;;;;;;;;;;15.10;99.90;;;;;;5037263;28;19959;-82
2021/10/20 07:46:08;;;;;;;;;;;15.00;99.90;;;;;;5024373;28;20363;-87
2021/10/20 07:48:33;;;;;;;;;;;15.00;99.90;;;;;;5029928;28;19917;-81
2021/10/20 07:50:59;;;;;;;;;;;15.00;99.90;;;;;;5031204;28;19956;-88
2021/10/20 07:53:24;;;;;;;;;;;14.90;99.90;;;;;;5032242;28;19948;-81
2021/10/20 07:55:50;;;;;;;;;;;14.90;99.90;;;;;;5034815;28;20243;-87
2021/10/20 07:58:16;;;;;;;;;;;14.90;99.90;;;;;;5036497;28;20300;-84
2021/10/20 08:00:41;;;;;;;;;;;14.90;99.90;;;;;;5033207;28;19909;-83
2021/10/20 08:03:07;;;;;;;;;;;14.80;99.90;;;;;;5044189;28;19914;-87
2021/10/20 08:05:33;;;;;;;;;;;14.80;99.90;;;;;;5033264;28;20383;-86
2021/10/20 08:07:59;;;;;;;;;;;14.80;99.90;;;;;;5033332;28;19920;-84
2021/10/20 08:10:25;;;;;;;;;;;14.90;99.90;;;;;;5036060;28;19994;-83
2021/10/20 08:12:51;;;;;;;;;;;14.90;99.90;;;;;;5032776;28;20052;-85
2021/10/20 08:15:17;;;;;;;;;;;14.90;99.90;;;;;;5037969;28;19913;-85
2021/10/20 08:17:43;;;;;;;;;;;14.90;99.90;;;;;;5037840;28;19913;-89
2021/10/20 08:20:10;;;;;;;;;;;14.90;99.90;;;;;;5036534;28;19940;-81
2021/10/20 08:22:36;;;;;;;;;;;14.90;99.90;;;;;;5034845;28;19917;-84
2021/10/20 08:25:03;;;;;;;;;;;15.00;99.90;;;;;;5038014;28;19913;-82
2021/10/20 08:27:28;;;;;;;;;;;15.00;99.90;;;;;;5035029;28;19917;-86
2021/10/20 08:29:54;;;;;;;;;;;15.10;99.90;;;;;;5038393;28;19909;-84
2021/10/20 08:32:20;;;;;;;;;;;15.10;99.90;;;;;;5033841;28;19913;-86
2021/10/20 08:34:47;;;;;;;;;;;15.10;99.90;;;;;;5035577;28;19913;-83
2021/10/20 08:37:12;;;;;;;;;;;15.10;99.90;;;;;;5031654;28;19952;-84
2021/10/20 08:39:38;;;;;;;;;;;15.20;99.90;;;;;;5044913;28;19917;-81
2021/10/20 08:42:04;;;;;;;;;;;15.20;99.90;;;;;;5030083;28;19976;-81
2021/10/20 08:44:31;;;;;;;;;;;15.30;99.90;;;;;;5037750;28;19913;-84
2021/10/20 08:46:57;;;;;;;;;;;15.30;99.90;;;;;;5051397;28;20300;-78
2021/10/20 08:49:23;;;;;;;;;;;15.30;99.90;;;;;;5036494;28;20020;-84
2021/10/20 08:51:50;;;;;;;;;;;15.40;99.90;;;;;;5033950;28;19913;-86
2021/10/20 08:54:15;;;;;;;;;;;15.40;99.90;;;;;;5035040;28;19917;-80
2021/10/20 08:56:44;;;;;;;;;;;15.40;99.90;;;;;;5026457;28;19916;-82
2021/10/20 08:59:11;;;;;;;;;;;15.40;99.90;;;;;;5028158;28;19979;-84
2021/10/20 09:01:37;;;;;;;;;;;15.40;99.90;;;;;;5032985;28;19913;-83
2021/10/20 09:04:03;;;;;;;;;;;15.50;99.90;;;;;;5044966;28;20001;-80
2021/10/20 09:06:29;;;;;;;;;;;15.50;99.90;;;;;;5037086;28;20331;-78
2021/10/20 09:08:55;;;;;;;;;;;15.60;99.90;;;;;;5036321;28;20010;-85
2021/10/20 09:11:42;;;;;;;;;;;15.70;99.90;;;;;;5032391;28;19936;-89
2021/10/20 09:14:14;;;;;;;;;;;15.80;99.90;;;;;;5031950;28;19913;-83
2021/10/20 09:16:41;;;;;;;;;;;15.80;99.90;;;;;;5032852;28;20007;-85
2021/10/20 09:19:11;;;;;;;;;;;15.90;99.90;;;;;;5035979;28;19917;-82
2021/10/20 09:21:51;;;;;;;;;;;15.90;99.90;;;;;;5034030;28;19921;-86
2021/10/20 09:24:17;;;;;;;;;;;15.90;99.90;;;;;;5035117;28;19914;-83
2021/10/20 09:26:43;;;;;;;;;;;15.90;99.90;;;;;;5035817;28;20114;-81
2021/10/20 09:29:18;;;;;;;;;;;15.90;99.90;;;;;;5025794;28;19960;-84
2021/10/20 09:31:43;;;;;;;;;;;16.00;99.90;;;;;;5035895;28;20442;-83
2021/10/20 09:34:10;;;;;;;;;;;16.10;99.90;;;;;;5027534;28;20003;-84
2021/10/20 09:36:35;;;;;;;;;;;16.10;99.90;;;;;;5022193;28;19913;-85
2021/10/20 09:39:01;;;;;;;;;;;16.10;99.90;;;;;;5034346;28;20198;-87
2021/10/20 09:41:27;;;;;;;;;;;16.20;99.90;;;;;;5045075;28;19920;-83
2021/10/20 09:43:55;;;;;;;;;;;16.20;99.90;;;;;;5033961;28;20007;-90
2021/10/20 09:46:37;;;;;;;;;;;16.30;99.90;;;;;;5040327;28;19921;-91
2021/10/20 09:49:16;;;;;;;;;;;16.40;99.90;;;;;;5032890;28;20193;-88
2021/10/20 09:51:42;;;;;;;;;;;16.40;99.90;;;;;;5035835;28;19913;-85
2021/10/20 09:54:27;;;;;;;;;;;16.40;99.90;;;;;;5035317;28;20256;-90
2021/10/20 09:56:57;;;;;;;;;;;16.40;99.90;;;;;;5033226;28;19910;-93
2021/10/20 09:59:23;;;;;;;;;;;16.30;99.90;;;;;;5032331;28;19913;-89
2021/10/20 10:01:49;;;;;;;;;;;16.30;99.90;;;;;;5030344;28;20028;-84
2021/10/20 10:04:15;;;;;;;;;;;16.20;99.90;;;;;;5046978;28;20186;-84
2021/10/20 10:06:41;;;;;;;;;;;16.20;99.90;;;;;;5032914;28;19927;-87
2021/10/20 10:09:07;;;;;;;;;;;16.20;99.90;;;;;;5033476;28;19909;-86
2021/10/20 10:11:33;;;;;;;;;;;16.20;99.90;;;;;;5027821;28;19967;-85
2021/10/20 10:14:02;;;;;;;;;;;16.20;99.90;;;;;;5035238;28;20209;-84
2021/10/20 10:16:28;;;;;;;;;;;16.20;99.90;;;;;;5028896;28;20215;-82
2021/10/20 10:18:55;;;;;;;;;;;16.20;99.90;;;;;;5034706;28;20419;-85
2021/10/20 10:21:27;;;;;;;;;;;16.30;99.90;;;;;;5034523;28;19971;-82
2021/10/20 10:23:55;;;;;;;;;;;16.30;99.90;;;;;;5032905;28;19917;-82
2021/10/20 10:26:20;;;;;;;;;;;16.30;99.90;;;;;;5030979;28;20227;-86
2021/10/20 10:29:03;;;;;;;;;;;16.40;99.90;;;;;;5050713;28;20004;-82
2021/10/20 10:31:33;;;;;;;;;;;16.40;99.90;;;;;;5029248;28;20012;-89
2021/10/20 10:33:59;;;;;;;;;;;16.40;99.90;;;;;;5026439;28;19963;-82
2021/10/20 10:36:24;;;;;;;;;;;16.40;99.90;;;;;;5033633;28;19913;-82
2021/10/20 10:38:59;;;;;;;;;;;16.40;99.90;;;;;;5032303;28;19913;-85
2021/10/20 10:41:41;;;;;;;;;;;16.50;99.90;;;;;;5045036;28;19913;-82
2021/10/20 10:44:07;;;;;;;;;;;16.50;99.90;;;;;;5032074;28;20208;-84
2021/10/20 10:46:33;;;;;;;;;;;16.60;99.90;;;;;;5033482;28;20296;-83
2021/10/20 10:48:59;;;;;;;;;;;16.60;99.90;;;;;;5033600;28;19963;-83
2021/10/20 10:51:25;;;;;;;;;;;16.70;99.90;;;;;;5032686;28;20263;-83
2021/10/20 10:53:52;;;;;;;;;;;16.80;99.90;;;;;;5032191;28;19924;-82
2021/10/20 10:56:17;;;;;;;;;;;16.90;99.90;;;;;;5031986;28;19915;-81
2021/10/20 10:58:56;;;;;;;;;;;16.90;99.90;;;;;;5034591;28;20012;-83
2021/10/20 11:01:43;;;;;;;;;;;16.90;99.90;;;;;;5034766;28;19957;-83
2021/10/20 11:04:15;;;;;;;;;;;16.90;99.90;;;;;;5024056;28;19914;-83
2021/10/20 11:06:41;;;;;;;;;;;16.90;99.90;;;;;;5037959;28;20020;-83
2021/10/20 11:09:07;;;;;;;;;;;16.90;99.90;;;;;;5035186;28;19957;-87
2021/10/20 11:11:33;;;;;;;;;;;16.90;99.90;;;;;;5025424;28;20258;-83
2021/10/20 11:14:00;;;;;;;;;;;16.90;99.90;;;;;;5034684;28;19909;-82
2021/10/20 11:16:26;;;;;;;;;;;16.90;99.90;;;;;;5030855;28;19929;-83
2021/10/20 11:18:52;;;;;;;;;;;16.90;99.90;;;;;;5036842;28;20062;-87
2021/10/20 11:21:20;;;;;;;;;;;16.90;99.90;;;;;;5041304;28;19928;-87
2021/10/20 11:23:45;;;;;;;;;;;16.90;99.90;;;;;;5040705;28;19927;-85
2021/10/20 11:26:11;;;;;;;;;;;16.90;99.90;;;;;;5041941;28;19917;-89
2021/10/20 11:28:37;;;;;;;;;;;16.90;99.90;;;;;;5034631;28;19910;-86
2021/10/20 11:31:09;;;;;;;;;;;17.00;99.90;;;;;;5034492;28;19909;-85
2021/10/20 11:33:35;;;;;;;;;;;16.90;99.90;;;;;;5020545;28;20568;-83
2021/10/20 11:36:00;;;;;;;;;;;16.90;99.90;;;;;;5050468;28;19998;-80
2021/10/20 11:38:32;;;;;;;;;;;16.90;99.90;;;;;;5029808;28;20007;-84
2021/10/20 11:40:57;;;;;;;;;;;16.90;99.90;;;;;;5045989;28;20197;-82
2021/10/20 11:43:26;;;;;;;;;;;16.90;99.90;;;;;;5034757;28;20021;-84
2021/10/20 11:45:51;;;;;;;;;;;16.90;99.90;;;;;;5026526;28;19921;-82
2021/10/20 11:48:21;;;;;;;;;;;16.80;99.90;;;;;;5046693;28;19913;-86
2021/10/20 11:50:47;;;;;;;;;;;16.90;99.90;;;;;;5038545;28;19913;-87
2021/10/20 11:53:13;;;;;;;;;;;16.90;99.90;;;;;;5046167;28;19916;-86
2021/10/20 11:55:43;;;;;;;;;;;16.80;99.90;;;;;;5039023;28;19913;-84
2021/10/20 11:58:19;;;;;;;;;;;16.90;99.90;;;;;;5037566;28;19909;-85
2021/10/20 12:00:56;;;;;;;;;;;16.90;99.90;;;;;;5042360;28;19909;-82
2021/10/20 12:03:30;;;;;;;;;;;17.00;99.90;;;;;;5051297;28;20695;-83
2021/10/20 12:05:56;;;;;;;;;;;17.10;99.90;;;;;;5044146;28;19927;-83
2021/10/20 12:08:22;;;;;;;;;;;17.10;99.90;;;;;;5040755;28;19909;-93
2021/10/20 12:10:48;;;;;;;;;;;17.10;99.90;;;;;;5038981;28;20395;-87
2021/10/20 12:13:13;;;;;;;;;;;17.20;99.90;;;;;;5051257;28;19913;-85
2021/10/20 12:15:40;;;;;;;;;;;17.20;99.90;;;;;;5049240;28;19909;-83
2021/10/20 12:18:06;;;;;;;;;;;17.30;99.90;;;;;;5034492;28;19992;-82
2021/10/20 12:20:32;;;;;;;;;;;17.30;99.90;;;;;;5036070;28;20281;-91
2021/10/20 12:22:58;;;;;;;;;;;17.30;99.90;;;;;;5054643;28;19987;-89
2021/10/20 12:25:23;;;;;;;;;;;17.30;99.90;;;;;;5043094;28;20008;-93
2021/10/20 12:27:51;;;;;;;;;;;17.30;99.90;;;;;;5040228;28;19975;-94
2021/10/20 12:30:16;;;;;;;;;;;17.30;99.90;;;;;;5038873;28;20367;-91
2021/10/20 12:32:42;;;;;;;;;;;17.30;99.90;;;;;;5041109;28;20012;-93
2021/10/20 12:35:08;;;;;;;;;;;17.30;99.90;;;;;;5036238;28;19913;-85
2021/10/20 12:37:36;;;;;;;;;;;17.30;99.90;;;;;;5042798;28;19917;-82
2021/10/20 12:40:06;;;;;;;;;;;17.30;99.90;;;;;;5039347;28;20236;-87
2021/10/20 12:42:41;;;;;;;;;;;17.30;99.90;;;;;;5036622;28;19952;-87
2021/10/20 12:45:07;;;;;;;;;;;17.30;99.90;;;;;;5048072;28;19912;-87
2021/10/20 12:47:37;;;;;;;;;;;17.30;99.90;;;;;;5036872;28;20335;-87
2021/10/20 12:50:04;;;;;;;;;;;17.30;99.90;;;;;;5042991;28;19917;-86
2021/10/20 12:52:29;;;;;;;;;;;17.30;99.90;;;;;;5041864;28;19916;-85
2021/10/20 12:54:55;;;;;;;;;;;17.40;99.90;;;;;;5040372;28;19913;-84
2021/10/20 12:57:21;;;;;;;;;;;17.40;99.90;;;;;;5034923;28;19919;-85
2021/10/20 12:59:47;;;;;;;;;;;17.40;99.90;;;;;;5032458;28;19909;-84
2021/10/20 13:02:12;;;;;;;;;;;17.40;99.90;;;;;;5024884;28;20209;-90
2021/10/20 13:04:38;;;;;;;;;;;17.50;99.90;;;;;;5045946;28;19913;-85
2021/10/20 13:07:04;;;;;;;;;;;17.50;99.90;;;;;;5033876;28;19967;-86
2021/10/20 13:09:30;;;;;;;;;;;17.40;99.90;;;;;;5036829;28;19916;-90
2021/10/20 13:11:56;;;;;;;;;;;17.50;99.90;;;;;;5032328;28;20201;-84
2021/10/20 13:14:21;;;;;;;;;;;17.60;99.90;;;;;;5036196;28;19909;-88
2021/10/20 13:16:47;;;;;;;;;;;17.60;99.90;;;;;;5036558;28;19932;-87
2021/10/20 13:19:13;;;;;;;;;;;17.60;99.90;;;;;;5046382;28;19909;-94
2021/10/20 13:21:40;;;;;;;;;;;17.60;99.90;;;;;;5056015;28;19925;-84
2021/10/20 13:24:05;;;;;;;;;;;17.60;99.90;;;;;;5047954;28;20357;-84
2021/10/20 13:26:31;;;;;;;;;;;17.60;99.90;;;;;;5036449;28;20011;-83
2021/10/20 13:28:57;;;;;;;;;;;17.60;99.90;;;;;;5053621;28;19910;-86
2021/10/20 13:31:23;;;;;;;;;;;17.60;99.90;;;;;;5037780;28;19920;-83
2021/10/20 13:33:48;;;;;;;;;;;17.60;99.90;;;;;;5036733;28;19909;-84
2021/10/20 13:36:15;;;;;;;;;;;17.50;99.90;;;;;;5037542;28;19920;-87
2021/10/20 13:38:42;;;;;;;;;;;17.50;99.90;;;;;;5035804;28;19917;-86
2021/10/20 13:41:08;;;;;;;;;;;17.50;99.90;;;;;;5036408;28;19935;-89
2021/10/20 13:43:33;;;;;;;;;;;17.50;99.90;;;;;;5036913;28;19913;-83
2021/10/20 13:45:59;;;;;;;;;;;17.50;99.90;;;;;;5036213;28;20308;-91
2021/10/20 13:48:25;;;;;;;;;;;17.50;99.90;;;;;;5049959;28;19910;-87
2021/10/20 13:50:51;;;;;;;;;;;17.50;99.90;;;;;;5032474;28;19967;-84
2021/10/20 13:53:16;;;;;;;;;;;17.50;99.90;;;;;;5037199;28;19913;-87
2021/10/20 13:55:42;;;;;;;;;;;17.50;99.90;;;;;;5035604;28;19910;-88
2021/10/20 13:58:08;;;;;;;;;;;17.50;99.90;;;;;;5030416;28;20301;-88
2021/10/20 14:00:34;;;;;;;;;;;17.50;99.90;;;;;;5030852;28;20285;-82
2021/10/20 14:02:59;;;;;;;;;;;17.50;99.90;;;;;;5033229;28;19913;-87
2021/10/20 14:05:25;;;;;;;;;;;17.50;99.90;;;;;;5036875;28;19920;-91
2021/10/20 14:07:51;;;;;;;;;;;17.50;99.90;;;;;;5036810;28;19909;-85
2021/10/20 14:10:17;;;;;;;;;;;17.50;99.90;;;;;;5035397;28;19909;-90
2021/10/20 14:12:42;;;;;;;;;;;17.50;99.90;;;;;;5025844;28;19909;-92